Time;durP1;ratioP1;P1;durP2;ratioP2;P2;SDS_P1;SDS_P2;PMS_P1;PMS_P2;Temp;Humidity;BMP_temperature;BMP_pressure;BME280_temperature;BME280_humidity;BME280_pressure;Samples;Min_cycle;Max_cycle;Signal;HPM_P1;HPM_P2
2021/07/06 06:35:45;;;;;;;15.90;1.45;;;20.50;99.90;;;;;;5067866;28;20628;-67
2021/07/06 06:38:11;;;;;;;8.23;1.50;;;20.40;99.90;;;;;;5068698;28;20050;-70
2021/07/06 06:40:36;;;;;;;7.60;1.50;;;20.60;99.90;;;;;;5065433;28;20064;-71
2021/07/06 06:43:02;;;;;;;8.60;1.60;;;20.90;99.90;;;;;;5048745;28;20040;-72
2021/07/06 06:45:31;;;;;;;8.73;1.40;;;21.00;99.90;;;;;;5039326;28;20042;-71
2021/07/06 06:47:58;;;;;;;8.23;1.70;;;21.20;99.90;;;;;;5048566;28;20053;-71
2021/07/06 06:50:23;;;;;;;6.75;1.77;;;21.30;99.90;;;;;;5048174;28;20040;-71
2021/07/06 06:52:49;;;;;;;8.50;1.80;;;21.50;99.90;;;;;;5047125;28;20025;-71
2021/07/06 06:55:14;;;;;;;8.73;1.38;;;21.60;99.90;;;;;;5043683;28;20043;-71
2021/07/06 06:57:40;;;;;;;6.85;1.70;;;21.60;99.90;;;;;;5042211;28;20040;-71
2021/07/06 07:00:08;;;;;;;5.82;1.50;;;21.70;99.90;;;;;;5046972;28;20133;-71
2021/07/06 07:02:34;;;;;;;6.18;1.83;;;21.80;99.90;;;;;;5046742;28;20029;-69
2021/07/06 07:05:00;;;;;;;7.60;1.75;;;21.80;99.90;;;;;;5048170;28;20473;-71
2021/07/06 07:07:26;;;;;;;7.45;1.77;;;21.90;99.90;;;;;;5048621;28;20026;-69
2021/07/06 07:09:52;;;;;;;6.35;1.48;;;22.00;99.90;;;;;;5048101;28;20028;-71
2021/07/06 07:12:18;;;;;;;7.05;1.70;;;22.00;99.90;;;;;;5048139;28;20489;-70
2021/07/06 07:14:45;;;;;;;9.85;1.65;;;22.10;99.90;;;;;;5049347;28;20043;-71
2021/07/06 07:17:11;;;;;;;8.02;1.65;;;22.10;99.90;;;;;;5047581;28;20025;-71
2021/07/06 07:19:37;;;;;;;7.03;1.52;;;22.20;99.90;;;;;;5047732;28;20064;-71
2021/07/06 07:22:04;;;;;;;7.10;1.50;;;22.20;99.90;;;;;;5048017;28;20045;-71
2021/07/06 07:24:30;;;;;;;4.78;1.38;;;22.10;99.90;;;;;;5046891;28;20511;-74
2021/07/06 07:26:57;;;;;;;6.10;1.42;;;22.10;99.90;;;;;;5047944;28;20033;-73
2021/07/06 07:29:23;;;;;;;8.20;1.52;;;22.20;99.90;;;;;;5047853;28;20025;-73
2021/07/06 07:31:49;;;;;;;7.10;1.35;;;22.20;99.90;;;;;;5047218;28;20060;-73
2021/07/06 07:34:14;;;;;;;6.72;1.40;;;22.20;99.90;;;;;;5055632;28;20098;-73
2021/07/06 07:36:41;;;;;;;7.40;1.50;;;22.20;99.90;;;;;;5074590;28;20028;-73
2021/07/06 07:39:08;;;;;;;4.43;1.20;;;22.20;99.90;;;;;;5085992;28;20051;-73
2021/07/06 07:41:34;;;;;;;6.57;1.30;;;22.10;99.90;;;;;;5087512;28;20056;-71
2021/07/06 07:43:59;;;;;;;7.10;1.58;;;22.20;99.90;;;;;;5067810;28;20021;-74
2021/07/06 07:46:26;;;;;;;8.20;1.50;;;22.10;99.90;;;;;;5057805;28;20029;-72
2021/07/06 07:48:52;;;;;;;8.65;1.52;;;22.20;99.90;;;;;;5054007;28;20029;-72
2021/07/06 07:51:18;;;;;;;4.82;1.27;;;22.20;99.90;;;;;;5054138;28;20025;-72
2021/07/06 07:53:44;;;;;;;5.43;1.20;;;22.20;99.90;;;;;;5053738;28;20061;-72
2021/07/06 07:56:11;;;;;;;5.97;1.15;;;22.20;99.90;;;;;;5053985;28;20025;-71
2021/07/06 07:58:37;;;;;;;4.10;1.27;;;22.20;99.90;;;;;;5053762;28;20028;-71
2021/07/06 08:01:03;;;;;;;5.55;1.50;;;22.20;99.90;;;;;;5053867;28;20405;-71
2021/07/06 08:03:29;;;;;;;6.78;1.45;;;22.20;99.90;;;;;;5054170;28;20024;-72
2021/07/06 08:05:57;;;;;;;3.63;1.17;;;22.20;99.90;;;;;;5053796;28;20032;-71
2021/07/06 08:08:22;;;;;;;6.45;1.60;;;22.20;99.90;;;;;;5069209;28;20492;-75
2021/07/06 08:10:52;;;;;;;3.78;0.95;;;22.30;99.90;;;;;;5068279;28;20029;-71
2021/07/06 08:13:23;;;;;;;4.45;1.15;;;22.40;99.90;;;;;;5073728;28;20024;-72
2021/07/06 08:15:49;;;;;;;6.38;1.42;;;22.40;99.90;;;;;;5071141;28;20125;-71
2021/07/06 08:18:15;;;;;;;5.65;1.35;;;22.40;99.90;;;;;;5054606;28;20072;-71
2021/07/06 08:20:42;;;;;;;4.15;1.27;;;22.50;99.90;;;;;;5069291;28;20032;-72
2021/07/06 08:23:08;;;;;;;5.82;1.52;;;22.50;99.90;;;;;;5053355;28;20025;-73
2021/07/06 08:25:33;;;;;;;4.35;1.25;;;22.50;99.90;;;;;;5053335;28;20092;-72
2021/07/06 08:27:59;;;;;;;6.20;1.20;;;22.50;99.90;;;;;;5052905;28;20115;-73
2021/07/06 08:30:25;;;;;;;6.15;1.45;;;22.50;99.90;;;;;;5054550;28;20112;-73
2021/07/06 08:32:51;;;;;;;6.38;1.15;;;22.50;99.90;;;;;;5053171;28;20028;-74
2021/07/06 08:35:16;;;;;;;3.63;1.33;;;22.50;99.90;;;;;;5053153;28;20045;-73
2021/07/06 08:37:42;;;;;;;6.13;1.20;;;22.50;99.90;;;;;;5054937;28;20021;-74
2021/07/06 08:40:09;;;;;;;4.55;1.23;;;22.50;99.90;;;;;;5062234;28;20099;-73
2021/07/06 08:42:37;;;;;;;6.20;1.20;;;22.50;99.90;;;;;;5072673;28;20503;-73
2021/07/06 08:45:04;;;;;;;3.47;1.05;;;22.60;99.90;;;;;;5063538;28;20068;-74
2021/07/06 08:47:30;;;;;;;3.95;1.40;;;22.60;99.90;;;;;;5061752;28;20020;-74
2021/07/06 08:49:56;;;;;;;4.82;1.45;;;22.60;99.90;;;;;;5054971;28;20037;-74
2021/07/06 08:52:23;;;;;;;5.15;1.60;;;22.60;99.90;;;;;;5052982;28;20028;-73
2021/07/06 08:54:49;;;;;;;5.72;1.40;;;22.60;99.90;;;;;;5052669;28;20396;-74
2021/07/06 08:57:21;;;;;;;6.30;1.20;;;22.60;99.90;;;;;;5055140;28;20527;-73
2021/07/06 08:59:47;;;;;;;3.60;1.08;;;22.60;99.90;;;;;;5052729;28;20082;-73
2021/07/06 09:02:13;;;;;;;7.50;1.55;;;22.60;99.90;;;;;;5054394;28;20100;-73
2021/07/06 09:04:47;;;;;;;4.88;1.23;;;22.60;99.90;;;;;;5052346;28;20021;-74
2021/07/06 09:07:14;;;;;;;3.08;0.98;;;22.60;99.90;;;;;;5051924;28;20488;-73
2021/07/06 09:09:40;;;;;;;4.68;1.20;;;22.60;99.90;;;;;;5052158;28;20032;-73
2021/07/06 09:12:08;;;;;;;5.18;0.93;;;22.60;99.90;;;;;;5055965;28;20039;-72
2021/07/06 09:14:37;;;;;;;5.30;1.27;;;22.60;99.90;;;;;;5054723;28;20106;-72
2021/07/06 09:17:15;;;;;;;5.40;1.10;;;22.60;99.90;;;;;;5052475;28;20527;-72
2021/07/06 09:19:46;;;;;;;4.28;1.25;;;22.60;99.90;;;;;;5047717;28;20547;-74
2021/07/06 09:22:11;;;;;;;4.82;1.10;;;22.60;99.90;;;;;;5050823;28;20048;-72
2021/07/06 09:24:38;;;;;;;4.22;1.05;;;22.60;99.90;;;;;;5051628;28;20393;-72
2021/07/06 09:27:25;;;;;;;5.95;1.17;;;22.60;99.90;;;;;;5051738;28;20021;-72
2021/07/06 09:30:10;;;;;;;5.38;1.30;;;22.60;99.90;;;;;;5052052;28;20036;-71
2021/07/06 09:32:38;;;;;;;4.60;1.25;;;22.60;99.90;;;;;;5051833;28;20156;-72
2021/07/06 09:35:11;;;;;;;4.70;1.33;;;22.70;99.90;;;;;;5051926;28;20114;-73
2021/07/06 09:37:57;;;;;;;4.55;1.30;;;22.70;99.90;;;;;;5051885;28;20473;-72
2021/07/06 09:40:27;;;;;;;6.43;1.40;;;22.70;99.90;;;;;;5051540;28;20036;-74
2021/07/06 09:43:22;;;;;;;4.90;1.35;;;22.70;99.90;;;;;;5051785;28;20500;-72
2021/07/06 09:46:00;;;;;;;5.00;1.08;;;22.70;99.90;;;;;;5051024;28;20029;-74
2021/07/06 09:48:26;;;;;;;4.90;1.20;;;22.70;99.90;;;;;;5055111;28;20016;-73
2021/07/06 09:50:52;;;;;;;4.57;0.93;;;22.70;99.90;;;;;;5068911;28;20039;-73
2021/07/06 09:53:25;;;;;;;5.88;1.30;;;22.70;99.90;;;;;;5049628;28;20025;-72
2021/07/06 09:55:51;;;;;;;4.53;1.08;;;22.70;99.90;;;;;;5051753;28;20041;-73
2021/07/06 09:58:17;;;;;;;3.85;1.02;;;22.70;99.90;;;;;;5050658;28;20032;-70
2021/07/06 10:00:42;;;;;;;2.75;0.90;;;22.70;99.90;;;;;;5051294;28;20028;-72
2021/07/06 10:03:09;;;;;;;2.92;0.98;;;22.70;99.90;;;;;;5051304;28;20092;-71
2021/07/06 10:05:35;;;;;;;2.83;1.08;;;22.70;99.90;;;;;;5033344;28;20171;-71
2021/07/06 10:08:01;;;;;;;5.07;1.27;;;22.70;99.90;;;;;;5050689;28;20452;-72
2021/07/06 10:10:27;;;;;;;5.18;1.20;;;22.70;99.90;;;;;;5062244;28;20101;-73
2021/07/06 10:12:56;;;;;;;3.90;1.13;;;22.70;99.90;;;;;;5050442;28;20048;-71
2021/07/06 10:15:23;;;;;;;4.53;1.27;;;22.70;99.90;;;;;;5050566;28;20472;-71
2021/07/06 10:17:50;;;;;;;5.63;1.17;;;22.70;99.90;;;;;;5050144;28;20457;-71
2021/07/06 10:20:21;;;;;;;3.65;1.00;;;22.70;99.90;;;;;;5051104;28;20083;-71
2021/07/06 10:22:49;;;;;;;4.45;1.30;;;22.70;99.90;;;;;;5050604;28;20023;-71
2021/07/06 10:25:15;;;;;;;3.05;1.10;;;22.70;99.90;;;;;;5056404;28;20028;-73
2021/07/06 10:27:50;;;;;;;5.13;1.40;;;22.70;99.90;;;;;;5071081;28;20024;-72
2021/07/06 10:30:20;;;;;;;5.22;1.27;;;22.70;99.90;;;;;;5071495;28;20365;-71
2021/07/06 10:32:53;;;;;;;5.38;0.90;;;22.70;99.90;;;;;;5070992;28;20082;-72
2021/07/06 10:35:38;;;;;;;5.45;1.17;;;22.70;99.90;;;;;;5071176;28;20040;-71
2021/07/06 10:41:07;;;;;;;5.18;1.05;;;22.70;99.90;;;;;;5070958;28;20025;-71
2021/07/06 10:43:40;;;;;;;3.60;1.02;;;22.70;99.90;;;;;;5070763;28;20021;-72
2021/07/06 10:46:29;;;;;;;7.90;0.90;;;22.70;99.90;;;;;;5051374;28;20070;-71
2021/07/06 10:49:14;;;;;;;2.70;0.75;;;22.70;99.90;;;;;;5033536;28;20029;-71
2021/07/06 10:51:39;;;;;;;5.63;1.13;;;22.70;99.90;;;;;;5050848;28;20026;-71
2021/07/06 10:54:17;;;;;;;4.00;1.13;;;22.70;99.90;;;;;;5051200;28;20048;-71
2021/07/06 10:56:51;;;;;;;3.60;1.20;;;22.70;99.90;;;;;;5051865;28;20385;-71
2021/07/06 10:59:31;;;;;;;6.65;1.30;;;22.70;99.90;;;;;;5051736;28;20032;-71
2021/07/06 11:02:21;;;;;;;6.75;1.27;;;22.70;99.90;;;;;;5051248;28;20040;-71
2021/07/06 11:04:46;;;;;;;5.95;1.15;;;22.70;99.90;;;;;;5050862;28;20021;-72
2021/07/06 11:07:14;;;;;;;6.25;1.08;;;22.60;99.90;;;;;;5051266;28;20029;-71
2021/07/06 11:09:39;;;;;;;6.60;1.30;;;22.60;99.90;;;;;;5055860;28;20115;-71
2021/07/06 11:12:24;;;;;;;3.92;1.00;;;22.70;99.90;;;;;;5050570;28;20489;-72
2021/07/06 11:15:02;;;;;;;3.95;0.88;;;22.60;99.90;;;;;;5053504;28;20111;-72
2021/07/06 11:17:34;;;;;;;2.50;0.95;;;22.60;99.90;;;;;;5071169;28;20021;-71
2021/07/06 11:20:04;;;;;;;3.40;1.08;;;22.60;99.90;;;;;;5049633;28;20029;-71
2021/07/06 11:22:39;;;;;;;3.20;1.00;;;22.60;99.90;;;;;;5054297;28;20055;-72
2021/07/06 11:25:22;;;;;;;2.50;0.90;;;22.60;99.90;;;;;;5055489;28;20087;-71
2021/07/06 11:28:17;;;;;;;3.55;1.05;;;22.60;99.90;;;;;;5050748;28;20025;-72
2021/07/06 11:30:45;;;;;;;5.38;0.93;;;22.60;99.90;;;;;;5064991;28;20021;-71
2021/07/06 11:33:19;;;;;;;5.10;1.20;;;22.70;99.90;;;;;;5064104;28;20059;-73
2021/07/06 11:35:47;;;;;;;5.43;1.10;;;22.60;99.90;;;;;;5059972;28;20041;-74
2021/07/06 11:38:20;;;;;;;3.40;1.17;;;22.60;99.90;;;;;;5060151;28;20024;-74
2021/07/06 11:40:47;;;;;;;;;;;22.60;99.90;;;;;;5054296;28;20032;-72
2021/07/06 11:43:16;;;;;;;10.55;1.50;;;22.60;99.90;;;;;;5055143;28;19909;-72
2021/07/06 11:45:48;;;;;;;9.50;1.38;;;22.50;99.90;;;;;;5053935;28;20056;-72
2021/07/06 11:48:15;;;;;;;6.50;1.13;;;22.50;99.90;;;;;;5054011;28;20567;-72
2021/07/06 11:50:44;;;;;;;6.00;1.33;;;22.50;99.90;;;;;;5053064;28;20063;-74
2021/07/06 11:53:11;;;;;;;5.95;1.10;;;22.50;99.90;;;;;;5056564;28;20373;-72
2021/07/06 11:55:38;;;;;;;6.05;1.38;;;22.50;99.90;;;;;;5053955;28;20025;-72
2021/07/06 11:58:06;;;;;;;5.30;1.17;;;22.50;99.90;;;;;;5053546;28;20025;-72
2021/07/06 12:00:35;;;;;;;5.32;1.15;;;22.50;99.90;;;;;;5053552;28;20028;-71
2021/07/06 12:03:21;;;;;;;4.90;0.80;;;22.60;99.90;;;;;;5053561;28;20025;-71
2021/07/06 12:06:14;;;;;;;4.68;1.15;;;22.50;99.90;;;;;;5053476;28;20549;-71
2021/07/06 12:08:45;;;;;;;5.93;0.93;;;22.50;99.90;;;;;;5049440;28;20125;-71
2021/07/06 12:11:11;;;;;;;3.85;1.10;;;22.50;99.90;;;;;;5053975;28;20415;-71
2021/07/06 12:13:40;;;;;;;3.53;1.02;;;22.50;99.90;;;;;;5053140;28;20548;-73
2021/07/06 12:16:11;;;;;;;6.07;1.20;;;22.50;99.90;;;;;;5053133;28;20075;-71
2021/07/06 12:18:46;;;;;;;8.52;1.20;;;22.50;99.90;;;;;;5053284;28;20060;-71
2021/07/06 12:21:19;;;;;;;3.63;1.15;;;22.50;99.90;;;;;;5053631;28;20477;-71
2021/07/06 12:23:46;;;;;;;5.93;1.15;;;22.50;99.90;;;;;;5070805;28;20509;-72
2021/07/06 12:26:13;;;;;;;3.10;1.00;;;22.50;99.90;;;;;;5073537;28;20024;-73
2021/07/06 12:28:43;;;;;;;7.70;1.30;;;22.50;99.90;;;;;;5073206;28;20032;-72
2021/07/06 12:31:15;;;;;;;5.45;1.20;;;22.50;99.90;;;;;;5073374;28;20159;-74
2021/07/06 12:33:45;;;;;;;7.32;1.33;;;22.50;99.90;;;;;;5070578;28;20029;-72
2021/07/06 12:36:12;;;;;;;5.90;1.30;;;22.60;99.90;;;;;;5059747;28;20036;-72
2021/07/06 12:38:38;;;;;;;4.45;1.20;;;22.50;99.90;;;;;;5052131;28;20021;-71
2021/07/06 12:41:18;;;;;;;6.85;1.05;;;22.60;99.90;;;;;;5050085;28;20025;-71
2021/07/06 12:43:55;;;;;;;3.42;0.88;;;22.60;99.90;;;;;;5052882;28;20017;-72
2021/07/06 12:46:25;;;;;;;4.03;1.00;;;22.60;99.90;;;;;;5052657;28;20048;-71
2021/07/06 12:48:51;;;;;;;10.32;1.38;;;22.60;99.90;;;;;;5032936;28;20033;-72
2021/07/06 12:51:16;;;;;;;4.32;0.85;;;22.60;99.90;;;;;;5032879;28;20033;-73
2021/07/06 12:54:06;;;;;;;2.83;0.73;;;22.60;99.90;;;;;;5032730;28;20028;-72
2021/07/06 12:56:33;;;;;;;4.75;1.02;;;22.60;99.90;;;;;;5022695;28;20041;-72
2021/07/06 12:59:23;;;;;;;10.57;1.17;;;22.50;99.90;;;;;;5033196;28;20411;-71
2021/07/06 13:01:49;;;;;;;5.55;1.10;;;22.50;99.90;;;;;;5032846;28;20030;-72
2021/07/06 13:04:15;;;;;;;4.07;1.13;;;22.60;99.90;;;;;;5032780;28;20032;-72
2021/07/06 13:06:40;;;;;;;2.53;0.73;;;22.50;99.90;;;;;;5048166;28;20498;-72
2021/07/06 13:09:06;;;;;;;2.83;0.82;;;22.60;99.90;;;;;;5052334;28;20425;-72
2021/07/06 13:11:31;;;;;;;5.35;1.00;;;22.50;99.90;;;;;;5055723;28;20028;-72
2021/07/06 13:14:15;;;;;;;3.83;0.98;;;22.60;99.90;;;;;;5052627;28;20064;-72
2021/07/06 13:16:41;;;;;;;3.15;1.00;;;22.60;99.90;;;;;;5053451;28;20037;-72
2021/07/06 13:19:18;;;;;;;3.97;0.95;;;22.60;99.90;;;;;;5051862;28;20071;-71
2021/07/06 13:21:43;;;;;;;3.00;0.90;;;22.60;99.90;;;;;;5052115;28;20472;-72
2021/07/06 13:24:09;;;;;;;5.00;0.95;;;22.60;99.90;;;;;;5052385;28;20028;-72
2021/07/06 13:26:35;;;;;;;3.67;1.10;;;22.60;99.90;;;;;;5052167;28;20032;-71
2021/07/06 13:29:01;;;;;;;2.80;1.00;;;22.60;99.90;;;;;;5055450;28;20020;-71
2021/07/06 13:31:27;;;;;;;3.60;1.00;;;22.60;99.90;;;;;;5052731;28;20416;-72
2021/07/06 13:33:53;;;;;;;5.03;1.00;;;22.60;99.90;;;;;;5051790;28;20033;-73
2021/07/06 13:36:18;;;;;;;4.43;1.00;;;22.60;99.90;;;;;;5054489;28;20507;-72
2021/07/06 13:38:44;;;;;;;3.55;0.93;;;22.60;99.90;;;;;;5052671;28;20017;-73
2021/07/06 13:41:10;;;;;;;2.28;0.85;;;22.60;99.90;;;;;;5055724;28;20029;-71
2021/07/06 13:43:36;;;;;;;2.45;0.98;;;22.60;99.90;;;;;;5054863;28;20071;-71
2021/07/06 13:46:03;;;;;;;3.75;1.00;;;22.60;99.90;;;;;;5051629;28;20529;-71
2021/07/06 13:48:29;;;;;;;3.80;0.80;;;22.60;99.90;;;;;;5052248;28;20381;-72
2021/07/06 13:50:55;;;;;;;4.63;1.10;;;22.60;99.90;;;;;;5064091;28;20518;-72
2021/07/06 13:53:21;;;;;;;3.63;0.90;;;22.70;99.90;;;;;;5051810;28;20021;-74
2021/07/06 13:55:48;;;;;;;2.72;0.82;;;22.70;99.90;;;;;;5051511;28;20041;-75
2021/07/06 13:58:15;;;;;;;2.30;0.80;;;22.70;99.90;;;;;;5051445;28;20496;-72
2021/07/06 14:00:41;;;;;;;3.17;0.73;;;22.70;99.90;;;;;;5051475;28;20033;-73
2021/07/06 14:03:10;;;;;;;3.70;0.93;;;22.70;99.90;;;;;;5051761;28;20380;-73
2021/07/06 14:05:37;;;;;;;3.08;0.75;;;22.80;99.90;;;;;;5051484;28;20107;-75
2021/07/06 14:08:03;;;;;;;2.28;0.80;;;22.70;99.90;;;;;;5052151;28;20017;-73
2021/07/06 14:10:29;;;;;;;3.17;0.80;;;22.70;99.90;;;;;;5063121;28;20033;-73
2021/07/06 14:12:56;;;;;;;4.60;0.70;;;22.70;99.90;;;;;;5055601;28;20102;-74
2021/07/06 14:15:22;;;;;;;2.63;0.60;;;22.70;99.90;;;;;;5051636;28;20071;-72
2021/07/06 14:17:48;;;;;;;3.13;0.88;;;22.70;99.90;;;;;;5051139;28;20389;-73
2021/07/06 14:20:15;;;;;;;2.58;0.70;;;22.70;99.90;;;;;;5051496;28;20107;-73
2021/07/06 14:22:42;;;;;;;1.40;0.60;;;22.70;99.90;;;;;;5034752;28;20031;-72
2021/07/06 14:25:10;;;;;;;2.10;0.63;;;22.70;99.90;;;;;;5031577;28;20033;-73
2021/07/06 14:27:35;;;;;;;1.95;0.75;;;22.70;99.90;;;;;;5031241;28;20028;-72
2021/07/06 14:30:03;;;;;;;2.47;0.90;;;22.70;99.90;;;;;;5031380;28;20402;-73
2021/07/06 14:32:37;;;;;;;1.75;0.77;;;22.70;99.90;;;;;;5031659;28;20404;-73
2021/07/06 14:35:03;;;;;;;2.28;0.63;;;22.70;99.90;;;;;;5047876;28;20047;-73
2021/07/06 14:37:29;;;;;;;1.83;0.60;;;22.70;99.90;;;;;;5071011;28;20472;-72
2021/07/06 14:39:55;;;;;;;1.67;0.65;;;22.70;99.90;;;;;;5071387;28;20040;-73
2021/07/06 14:42:20;;;;;;;2.70;0.90;;;22.70;99.90;;;;;;5071329;28;20029;-73
2021/07/06 14:44:47;;;;;;;1.73;0.73;;;22.70;99.90;;;;;;5071076;28;20024;-73
2021/07/06 14:47:13;;;;;;;1.85;0.80;;;22.70;99.90;;;;;;5057749;28;20029;-72
2021/07/06 14:49:38;;;;;;;3.40;0.90;;;22.70;99.90;;;;;;5055153;28;20041;-73
2021/07/06 14:52:04;;;;;;;1.63;0.80;;;22.70;99.90;;;;;;5052300;28;20028;-73
2021/07/06 14:54:30;;;;;;;1.70;0.57;;;22.70;99.90;;;;;;5069720;28;20516;-73
2021/07/06 14:56:57;;;;;;;2.20;0.70;;;22.70;99.90;;;;;;5074361;28;20031;-73
2021/07/06 14:59:22;;;;;;;2.80;0.70;;;22.80;99.90;;;;;;5072491;28;20107;-71
2021/07/06 15:01:48;;;;;;;2.22;0.68;;;22.80;99.90;;;;;;5074827;28;20456;-72
2021/07/06 15:04:13;;;;;;;4.32;0.80;;;22.80;99.90;;;;;;5075086;28;20361;-71
2021/07/06 15:06:39;;;;;;;3.50;0.80;;;22.80;99.90;;;;;;5074852;28;20024;-74
2021/07/06 15:09:05;;;;;;;3.55;0.90;;;22.80;99.90;;;;;;5074999;28;20029;-73
2021/07/06 15:11:30;;;;;;;3.08;1.02;;;22.80;99.90;;;;;;5074770;28;20454;-72
2021/07/06 15:13:58;;;;;;;1.40;0.65;;;22.80;99.90;;;;;;5075103;28;20042;-73
2021/07/06 15:16:24;;;;;;;1.77;0.63;;;22.80;99.90;;;;;;5064643;28;20059;-73
2021/07/06 15:18:50;;;;;;;2.67;1.00;;;22.80;99.90;;;;;;5048094;28;20052;-73
2021/07/06 15:21:15;;;;;;;2.35;0.90;;;22.80;99.90;;;;;;5074717;28;20024;-73
2021/07/06 15:23:42;;;;;;;2.75;1.00;;;22.80;99.90;;;;;;5074635;28;20133;-73
2021/07/06 15:26:09;;;;;;;3.97;0.73;;;22.80;99.90;;;;;;5074625;28;20032;-74
2021/07/06 15:28:35;;;;;;;4.13;1.00;;;22.80;99.90;;;;;;5074238;28;20436;-72
2021/07/06 15:31:00;;;;;;;3.83;0.77;;;22.80;99.90;;;;;;5074307;28;20056;-73
2021/07/06 15:33:29;;;;;;;2.30;1.13;;;22.80;99.90;;;;;;5072319;28;20043;-73
2021/07/06 15:35:58;;;;;;;2.72;1.05;;;22.80;99.90;;;;;;5074590;28;20111;-73
2021/07/06 15:38:24;;;;;;;2.55;0.75;;;22.80;99.90;;;;;;5074203;28;20035;-73
2021/07/06 15:40:49;;;;;;;4.18;0.80;;;22.80;99.90;;;;;;5074143;28;20405;-72
2021/07/06 15:43:15;;;;;;;3.78;0.60;;;22.80;99.90;;;;;;5074201;28;20031;-72
2021/07/06 15:45:41;;;;;;;3.80;1.00;;;22.80;99.90;;;;;;5068437;28;20033;-71
2021/07/06 15:48:07;;;;;;;2.67;0.80;;;22.80;99.90;;;;;;5054225;28;20029;-71
2021/07/06 15:50:32;;;;;;;4.00;0.77;;;22.80;99.90;;;;;;5053469;28;20029;-73
2021/07/06 15:52:58;;;;;;;4.25;0.80;;;22.90;99.90;;;;;;5055548;28;20040;-71
2021/07/06 15:55:25;;;;;;;3.80;0.98;;;22.80;99.90;;;;;;5074094;28;20086;-74
2021/07/06 15:57:51;;;;;;;6.25;1.10;;;22.90;99.90;;;;;;5073715;28;20052;-74
2021/07/06 16:00:18;;;;;;;2.75;0.90;;;22.90;99.90;;;;;;5073986;28;20029;-73
2021/07/06 16:02:44;;;;;;;4.93;0.80;;;22.90;99.90;;;;;;5068076;28;20043;-73
2021/07/06 16:05:12;;;;;;;2.47;0.77;;;22.90;99.90;;;;;;5053868;28;20431;-73
2021/07/06 16:07:40;;;;;;;2.80;0.77;;;22.90;99.90;;;;;;5053331;28;20078;-73
2021/07/06 16:10:07;;;;;;;2.92;0.80;;;22.90;99.90;;;;;;5053825;28;20506;-73
2021/07/06 16:12:33;;;;;;;5.00;0.70;;;22.90;99.90;;;;;;5053538;28;20390;-73
2021/07/06 16:14:58;;;;;;;2.70;0.70;;;22.90;99.90;;;;;;5053441;28;20465;-74
2021/07/06 16:17:24;;;;;;;2.88;0.88;;;22.90;99.90;;;;;;5054856;28;20517;-73
2021/07/06 16:19:50;;;;;;;4.60;0.90;;;22.90;99.90;;;;;;5053479;28;20032;-72
2021/07/06 16:22:16;;;;;;;3.63;1.08;;;22.90;99.90;;;;;;5053724;28;20457;-72
2021/07/06 16:24:46;;;;;;;3.17;0.90;;;22.90;99.90;;;;;;5053069;28;20485;-72
2021/07/06 16:27:12;;;;;;;3.90;0.82;;;22.90;99.90;;;;;;5053355;28;20474;-72
2021/07/06 16:29:38;;;;;;;2.05;0.70;;;22.90;99.90;;;;;;5035408;28;20036;-72
2021/07/06 16:32:04;;;;;;;3.22;1.00;;;22.90;99.90;;;;;;5053499;28;20096;-72
2021/07/06 16:34:29;;;;;;;2.45;0.73;;;22.90;99.90;;;;;;5053205;28;20120;-73
2021/07/06 16:36:55;;;;;;;2.15;0.98;;;22.80;99.90;;;;;;5058836;28;20094;-71
2021/07/06 16:39:21;;;;;;;3.35;0.80;;;22.80;99.90;;;;;;5053068;28;20075;-73
2021/07/06 16:41:46;;;;;;;5.53;1.20;;;22.80;99.90;;;;;;5052788;28;20059;-71
2021/07/06 16:44:12;;;;;;;3.15;0.90;;;22.80;99.90;;;;;;5053365;28;20021;-73
2021/07/06 16:46:38;;;;;;;4.90;0.98;;;22.80;99.90;;;;;;5052979;28;20112;-73
2021/07/06 16:49:03;;;;;;;4.97;1.08;;;22.70;99.90;;;;;;5052802;28;20033;-71
2021/07/06 17:58:31;;;;;;;6.30;1.48;;;22.50;99.90;;;;;;4934642;29;20038;-75
2021/07/06 18:00:56;;;;;;;4.75;1.30;;;22.50;99.90;;;;;;4973908;28;20037;-76
2021/07/06 18:03:25;;;;;;;4.60;1.40;;;22.40;99.90;;;;;;5050043;28;20025;-75
2021/07/06 18:06:06;;;;;;;6.25;1.15;;;22.40;99.90;;;;;;5049669;28;20028;-74
2021/07/06 18:08:33;;;;;;;6.60;1.50;;;22.40;99.90;;;;;;5048712;28;20033;-76
2021/07/06 18:11:00;;;;;;;5.90;1.05;;;22.40;99.90;;;;;;5051747;28;20029;-74
2021/07/06 18:13:27;;;;;;;5.32;1.00;;;22.50;99.90;;;;;;5051610;28;20028;-77
2021/07/06 18:15:54;;;;;;;3.58;0.80;;;22.50;99.90;;;;;;5052596;28;20041;-71
2021/07/06 18:18:21;;;;;;;6.15;1.15;;;22.40;99.90;;;;;;5050456;28;20167;-72
2021/07/06 18:20:47;;;;;;;6.45;1.10;;;22.40;99.90;;;;;;5051269;28;20025;-75
2021/07/06 18:23:14;;;;;;;4.28;1.00;;;22.40;99.90;;;;;;5051466;28;20050;-74
2021/07/06 18:25:40;;;;;;;3.97;1.20;;;22.40;99.90;;;;;;5051287;28;20029;-72
2021/07/06 18:28:06;;;;;;;6.88;1.40;;;22.40;99.90;;;;;;5051227;28;20028;-70
2021/07/06 18:30:33;;;;;;;6.20;1.42;;;22.40;99.90;;;;;;5044579;28;20110;-74
2021/07/06 18:32:59;;;;;;;5.07;1.40;;;22.40;99.90;;;;;;5055841;28;20488;-74
2021/07/06 18:35:25;;;;;;;4.65;1.00;;;22.40;99.90;;;;;;5050701;28;20412;-74
2021/07/06 18:37:51;;;;;;;7.80;1.38;;;22.40;99.90;;;;;;5051198;28;20028;-74
2021/07/06 18:40:21;;;;;;;5.32;1.40;;;22.40;99.90;;;;;;5051430;28;20100;-76
2021/07/06 18:42:47;;;;;;;5.20;1.20;;;22.40;99.90;;;;;;5051228;28;20055;-76
2021/07/06 18:45:13;;;;;;;4.75;1.42;;;22.40;99.90;;;;;;5050666;28;20021;-72
2021/07/06 18:47:40;;;;;;;5.40;1.20;;;22.40;99.90;;;;;;5050723;28;20017;-75
2021/07/06 18:50:08;;;;;;;4.72;1.13;;;22.40;99.90;;;;;;5051238;28;20055;-72
2021/07/06 18:52:34;;;;;;;5.40;1.17;;;22.30;99.90;;;;;;5049567;28;20481;-72
2021/07/06 18:55:00;;;;;;;3.70;1.25;;;22.30;99.90;;;;;;5049896;28;20533;-73
2021/07/06 18:57:27;;;;;;;3.05;1.02;;;22.30;99.90;;;;;;5047982;28;20109;-72
2021/07/06 19:00:00;;;;;;;6.40;1.05;;;22.30;99.90;;;;;;5049595;28;20535;-72
2021/07/06 19:04:52;;;;;;;5.03;1.02;;;22.30;99.90;;;;;;5049033;28;20036;-73
2021/07/06 19:07:19;;;;;;;5.47;1.20;;;22.30;99.90;;;;;;5048821;28;21556;-73
2021/07/06 19:09:45;;;;;;;5.13;1.50;;;22.30;99.90;;;;;;5049354;28;20029;-70
2021/07/06 19:12:11;;;;;;;4.53;1.30;;;22.40;99.90;;;;;;5049665;28;20021;-71
2021/07/06 19:14:37;;;;;;;4.50;1.10;;;22.30;99.90;;;;;;5031468;28;20036;-71
2021/07/06 19:17:03;;;;;;;5.03;1.00;;;22.30;99.90;;;;;;5047187;28;20025;-72
2021/07/06 19:19:29;;;;;;;2.85;1.35;;;22.30;99.90;;;;;;5049831;28;20096;-72
2021/07/06 19:21:55;;;;;;;3.95;1.05;;;22.30;99.90;;;;;;5049973;28;20033;-72
2021/07/06 19:27:22;;;;;;;5.80;1.38;;;22.30;99.90;;;;;;5027378;28;20485;-71
2021/07/06 19:32:34;;;;;;;6.65;1.30;;;22.30;99.90;;;;;;5030665;28;20033;-72
2021/07/06 19:35:03;;;;;;;7.97;1.63;;;22.30;99.90;;;;;;5033129;28;20041;-72
2021/07/06 19:37:30;;;;;;;4.70;1.60;;;22.30;99.90;;;;;;5031064;28;20537;-74
2021/07/06 19:39:56;;;;;;;6.25;1.65;;;22.30;99.90;;;;;;5031146;28;20037;-74
2021/07/06 19:42:22;;;;;;;5.47;1.20;;;22.30;99.90;;;;;;5032502;28;20109;-71
2021/07/06 19:44:47;;;;;;;4.60;1.40;;;22.30;99.90;;;;;;5034095;28;20025;-71
2021/07/06 19:47:13;;;;;;;6.13;1.42;;;22.30;99.90;;;;;;5034341;28;20397;-71
2021/07/06 19:49:39;;;;;;;5.43;1.52;;;22.30;99.90;;;;;;5017254;28;20040;-70
2021/07/06 19:52:07;;;;;;;5.72;1.70;;;22.30;99.90;;;;;;5039062;28;20044;-72
